createdAt,value
2022-11-18T00:01:48.155Z,11.45
2022-11-18T00:04:16.390Z,10.05
2022-11-18T00:06:44.139Z,11.43
2022-11-18T00:09:11.932Z,12.95
2022-11-18T00:11:59.026Z,10.35
2022-11-18T00:14:27.653Z,11.15
2022-11-18T00:16:57.661Z,10.20
2022-11-18T00:19:27.351Z,11.93
2022-11-18T00:21:54.979Z,11.43
2022-11-18T00:24:22.648Z,10.27
2022-11-18T00:26:50.890Z,11.02
2022-11-18T00:29:18.772Z,10.82
2022-11-18T00:31:46.570Z,14.88
2022-11-18T00:34:15.361Z,13.90
2022-11-18T00:36:43.838Z,13.73
2022-11-18T00:39:12.151Z,11.70
2022-11-18T00:41:58.073Z,12.23
2022-11-18T00:44:26.356Z,12.02
2022-11-18T00:46:54.315Z,13.13
2022-11-18T00:49:22.003Z,15.60
2022-11-18T00:51:49.750Z,13.45
2022-11-18T00:54:19.080Z,14.35
2022-11-18T00:56:46.854Z,13.20
2022-11-18T00:59:17.307Z,14.77
2022-11-18T01:01:45.243Z,15.43
2022-11-18T01:04:12.894Z,14.05
2022-11-18T01:06:40.741Z,15.68
2022-11-18T01:09:08.972Z,15.15
2022-11-18T01:11:55.026Z,15.52
2022-11-18T01:14:24.985Z,14.93
2022-11-18T01:16:56.475Z,14.50
2022-11-18T01:19:24.427Z,13.57
2022-11-18T01:21:52.042Z,15.18
2022-11-18T01:24:19.789Z,14.95
2022-11-18T01:26:47.376Z,13.93
2022-11-18T01:29:16.072Z,15.63
2022-11-18T01:32:01.813Z,15.63
2022-11-18T01:34:31.941Z,14.60
2022-11-18T01:36:59.493Z,14.90
2022-11-18T01:39:27.840Z,15.65
2022-11-18T01:41:55.954Z,14.75
2022-11-18T04:15:09.902Z,11.43
2022-11-18T04:17:37.621Z,14.35
2022-11-18T04:20:05.691Z,14.02
2022-11-18T04:22:36.231Z,14.15
2022-11-18T04:25:03.974Z,15.90
2022-11-18T04:27:31.584Z,13.85
2022-11-18T04:29:59.346Z,14.88
2022-11-18T04:32:26.945Z,14.23
2022-11-18T04:34:54.549Z,11.75
2022-11-18T04:37:22.359Z,14.60
2022-11-18T04:39:50.315Z,14.55
2022-11-18T04:42:18.060Z,15.35
2022-11-18T04:44:45.726Z,13.82
2022-11-18T04:47:13.638Z,11.05
2022-11-18T04:49:41.161Z,14.70
2022-11-18T04:52:09.705Z,14.40
2022-11-18T04:54:37.319Z,15.10
2022-11-18T04:57:04.962Z,13.73
2022-11-18T04:59:34.257Z,13.98
2022-11-18T05:02:02.035Z,13.88
2022-11-18T05:05:26.430Z,13.88
2022-11-18T05:09:10.167Z,16.00
2022-11-18T05:12:08.013Z,12.35
2022-11-18T05:14:36.399Z,15.00
2022-11-18T05:17:05.530Z,13.80
2022-11-18T05:19:42.245Z,12.98
2022-11-18T05:22:10.105Z,14.63
2022-11-18T05:24:38.305Z,14.63
2022-11-18T05:27:06.264Z,15.30
2022-11-18T05:29:34.447Z,15.65
2022-11-18T05:32:02.347Z,14.48
2022-11-18T05:34:48.818Z,13.27
2022-11-18T05:37:16.593Z,12.60
2022-11-18T05:39:44.261Z,14.82
2022-11-18T05:42:30.451Z,15.15
2022-11-18T05:44:59.022Z,12.60
2022-11-18T05:47:27.255Z,15.95
2022-11-18T05:49:55.108Z,14.60
2022-11-18T05:52:22.811Z,14.98
2022-11-18T05:54:50.755Z,14.32
2022-11-18T05:57:18.471Z,14.95
2022-11-18T05:59:46.581Z,17.05
2022-11-18T06:02:17.031Z,16.05
2022-11-18T06:04:49.645Z,16.00
2022-11-18T06:07:23.216Z,15.35
2022-11-18T06:09:54.999Z,16.02
2022-11-18T06:12:28.995Z,9.68
2022-11-18T06:15:27.756Z,15.23
2022-11-18T06:18:07.733Z,16.15
2022-11-18T06:20:36.663Z,13.43
2022-11-18T06:23:04.341Z,14.38
2022-11-18T06:25:32.438Z,14.77
2022-11-18T06:28:01.647Z,16.85
2022-11-18T06:30:29.567Z,16.48
2022-11-18T06:32:57.283Z,17.00
2022-11-18T06:35:25.228Z,17.80
2022-11-18T06:37:53.256Z,15.65
2022-11-18T06:40:20.927Z,14.60
2022-11-18T06:43:07.118Z,15.90
2022-11-18T06:45:35.453Z,15.50
2022-11-18T06:48:04.338Z,17.30
2022-11-18T06:50:32.320Z,17.00
2022-11-18T06:53:18.160Z,17.35
2022-11-18T06:55:45.901Z,16.73
2022-11-18T06:58:14.347Z,17.48
2022-11-18T07:00:42.097Z,15.73
2022-11-18T07:03:09.926Z,17.40
2022-11-18T07:05:39.922Z,16.25
2022-11-18T07:08:07.560Z,15.85
2022-11-18T07:10:35.244Z,16.08
2022-11-18T07:13:03.309Z,14.85
2022-11-18T07:15:31.275Z,16.33
2022-11-18T07:17:58.974Z,19.52
2022-11-18T07:20:26.721Z,17.67
2022-11-18T07:22:54.659Z,17.95
2022-11-18T07:25:22.565Z,17.48
2022-11-18T07:27:50.356Z,18.60
2022-11-18T07:30:18.266Z,19.70
2022-11-18T07:32:46.046Z,16.10
2022-11-18T07:35:14.561Z,16.27
2022-11-18T07:37:42.283Z,16.27
2022-11-18T07:40:10.659Z,17.38
2022-11-18T07:42:45.542Z,17.60
2022-11-18T07:45:25.370Z,15.73
2022-11-18T07:47:53.008Z,17.90
2022-11-18T07:50:20.640Z,16.80
2022-11-18T07:52:48.315Z,17.63
2022-11-18T07:55:15.928Z,17.23
2022-11-18T07:57:44.058Z,17.75
2022-11-18T08:00:11.999Z,17.45
2022-11-18T08:02:44.107Z,17.20
2022-11-18T08:05:17.700Z,16.67
2022-11-18T08:07:47.036Z,16.30
2022-11-18T08:10:14.765Z,14.50
2022-11-18T08:12:43.091Z,16.98
2022-11-18T08:15:11.265Z,15.75
2022-11-18T08:17:39.093Z,16.85
2022-11-18T08:20:07.162Z,16.50
2022-11-18T08:22:52.855Z,14.93
2022-11-18T08:25:20.617Z,15.07
2022-11-18T08:27:48.447Z,14.77
2022-11-18T08:30:16.154Z,14.32
2022-11-18T08:32:44.199Z,14.25
2022-11-18T08:35:12.317Z,14.43
2022-11-18T08:37:39.987Z,13.63
2022-11-18T08:40:08.058Z,12.32
2022-11-18T08:42:37.947Z,12.90
2022-11-18T08:45:08.587Z,13.05
2022-11-18T08:47:36.946Z,14.10
2022-11-18T08:50:05.968Z,12.77
2022-11-18T08:52:34.002Z,13.73
2022-11-18T08:55:01.624Z,16.40
2022-11-18T08:57:29.366Z,13.00
2022-11-18T08:59:56.960Z,12.80
2022-11-18T09:02:25.062Z,15.45
2022-11-18T09:04:52.687Z,14.82
2022-11-18T09:07:21.629Z,13.38
2022-11-18T09:09:50.476Z,13.65
2022-11-18T09:12:18.154Z,12.43
2022-11-18T09:17:35.097Z,11.57
2022-11-18T09:20:02.745Z,12.35
2022-11-18T09:22:32.189Z,13.40
2022-11-18T09:24:59.732Z,12.10
2022-11-18T09:27:27.473Z,11.60
2022-11-18T09:29:55.080Z,12.65
2022-11-18T09:32:22.751Z,13.77
2022-11-18T09:34:50.452Z,13.43
2022-11-18T09:37:19.235Z,14.52
2022-11-18T09:39:46.932Z,14.80
2022-11-18T09:42:23.660Z,12.55
2022-11-18T09:45:07.376Z,13.40
2022-11-18T09:47:38.010Z,15.25
2022-11-18T09:50:47.805Z,13.93
2022-11-18T09:53:21.687Z,13.75
2022-11-18T09:55:50.272Z,14.18
2022-11-18T09:58:23.094Z,14.77
2022-11-18T10:00:51.013Z,19.08
2022-11-18T10:03:26.704Z,15.15
2022-11-18T10:06:05.162Z,16.05
2022-11-18T10:08:46.046Z,15.32
2022-11-18T10:11:18.454Z,16.75
2022-11-18T10:13:51.848Z,14.68
2022-11-18T10:16:42.316Z,16.27
2022-11-18T10:19:30.078Z,15.73
2022-11-18T10:22:24.349Z,14.50
2022-11-18T15:35:43.422Z,38.22
2022-11-18T15:38:11.882Z,39.72
2022-11-18T15:40:40.796Z,32.13
2022-11-18T15:43:08.511Z,31.85
2022-11-18T15:45:36.354Z,28.30
2022-11-18T15:48:04.225Z,30.27
2022-11-18T15:50:32.363Z,31.30
2022-11-18T15:53:00.315Z,25.35
2022-11-18T15:55:28.026Z,24.42
2022-11-18T15:57:55.783Z,21.45
2022-11-18T16:00:24.049Z,23.90
2022-11-18T16:02:52.180Z,22.58
2022-11-18T16:05:19.858Z,23.88
2022-11-18T16:07:52.786Z,28.77
2022-11-18T16:10:40.852Z,31.95
2022-11-18T16:13:08.485Z,31.73
2022-11-18T16:15:48.313Z,33.92
2022-11-18T16:18:16.817Z,27.85
2022-11-18T16:20:44.564Z,23.98
2022-11-18T16:23:12.393Z,24.13
2022-11-18T16:25:46.414Z,27.02
2022-11-18T16:28:14.069Z,24.08
2022-11-18T16:31:00.522Z,22.30
2022-11-18T16:33:28.913Z,22.25
2022-11-18T16:35:56.621Z,23.23
2022-11-18T16:38:24.409Z,21.42
2022-11-18T16:40:56.878Z,23.85
2022-11-18T16:43:24.869Z,26.17
2022-11-18T16:45:53.817Z,24.73
2022-11-18T16:48:21.892Z,23.48
2022-11-18T16:50:55.207Z,19.95
2022-11-18T16:53:22.931Z,16.95
2022-11-18T16:55:50.521Z,17.48
2022-11-18T16:58:18.270Z,18.30
2022-11-18T17:01:16.419Z,19.38
2022-11-18T17:03:33.736Z,19.65
2022-11-18T17:06:01.418Z,20.88
2022-11-18T17:08:29.265Z,18.35
2022-11-18T17:10:56.929Z,17.98
2022-11-18T17:13:24.862Z,18.48
2022-11-18T17:15:52.454Z,17.48
2022-11-18T17:18:20.210Z,18.20
2022-11-18T17:20:47.913Z,19.38
2022-11-18T17:23:15.849Z,19.35
2022-11-18T17:25:43.916Z,17.13
2022-11-18T17:28:12.088Z,17.65
2022-11-18T17:30:43.483Z,15.93
2022-11-18T17:33:15.562Z,16.90
2022-11-18T17:35:43.172Z,18.30
2022-11-18T17:38:10.894Z,18.35
2022-11-18T17:40:39.095Z,14.57
2022-11-18T17:43:06.783Z,17.58
2022-11-18T17:45:34.540Z,18.48
2022-11-18T17:48:02.523Z,26.98
2022-11-18T17:50:30.329Z,28.10
2022-11-18T17:52:58.316Z,21.88
2022-11-18T17:55:25.976Z,20.75
2022-11-18T17:57:53.760Z,18.83
2022-11-18T18:00:21.520Z,20.38
2022-11-18T18:02:49.264Z,22.60
2022-11-18T18:05:17.025Z,22.48
2022-11-18T18:07:45.512Z,23.88
2022-11-18T18:10:13.419Z,24.92
2022-11-18T18:13:00.907Z,22.70
2022-11-18T18:15:30.392Z,24.00
2022-11-18T18:17:59.669Z,25.15
2022-11-18T18:20:27.799Z,25.50
2022-11-18T18:22:56.985Z,26.83
2022-11-18T18:25:25.453Z,26.02
2022-11-18T18:27:55.020Z,30.17
2022-11-18T18:30:22.806Z,30.02
2022-11-18T18:32:52.721Z,28.02
2022-11-18T18:35:21.160Z,26.45
2022-11-18T18:37:48.835Z,23.90
2022-11-18T18:40:16.876Z,28.65
2022-11-18T18:42:44.644Z,27.60
2022-11-18T18:45:30.916Z,28.58
2022-11-18T18:48:03.247Z,30.13
2022-11-18T18:50:32.530Z,32.65
2022-11-18T18:53:00.265Z,33.42
2022-11-18T18:55:28.764Z,56.65
2022-11-18T18:57:56.363Z,39.75
2022-11-18T19:00:24.078Z,36.72
2022-11-18T19:02:54.871Z,32.60
2022-11-18T19:08:10.941Z,33.80
2022-11-18T19:10:39.399Z,31.10
2022-11-18T19:13:07.228Z,35.50
2022-11-18T19:15:35.767Z,36.63
2022-11-18T22:34:46.889Z,28.83
2022-11-18T22:37:18.206Z,29.60
2022-11-18T22:39:47.631Z,24.52
2022-11-18T22:42:38.344Z,27.70
2022-11-18T22:45:06.668Z,19.87
2022-11-18T22:47:34.260Z,26.17
2022-11-18T22:50:01.933Z,25.48
2022-11-18T22:52:29.718Z,25.77
2022-11-18T22:54:57.409Z,22.63
2022-11-18T22:57:25.236Z,24.10
2022-11-18T22:59:53.884Z,22.80
2022-11-18T23:02:21.459Z,25.85
2022-11-18T23:04:49.480Z,28.40
2022-11-18T23:07:17.308Z,22.45
2022-11-18T23:09:44.923Z,25.20
2022-11-18T23:12:32.644Z,25.65
2022-11-18T23:15:00.248Z,26.20
2022-11-18T23:17:27.917Z,25.75
2022-11-18T23:19:56.741Z,26.35
2022-11-18T23:22:24.459Z,24.10
2022-11-18T23:24:52.060Z,25.13
2022-11-18T23:27:19.700Z,20.88
2022-11-18T23:29:47.426Z,25.00
2022-11-18T23:32:15.341Z,27.10
2022-11-18T23:34:43.174Z,22.42
2022-11-18T23:37:11.015Z,23.10
2022-11-18T23:39:38.755Z,26.95
2022-11-18T23:42:06.527Z,24.70
2022-11-18T23:44:46.129Z,23.42
2022-11-18T23:47:14.019Z,25.20
2022-11-18T23:49:42.023Z,24.98
2022-11-18T23:52:10.861Z,21.83
2022-11-18T23:54:40.643Z,20.83
2022-11-18T23:57:08.338Z,23.08
2022-11-18T23:59:35.876Z,23.15
